Kodiak, AK (99615)

6:53 PM AKDT on July 05, 2015 (GMT -0800)
Baranof | | Change Station
CLOSE
Current Station
Personal Weather Station
Location: Kodiak, AK
Elevation: 85 ft
Nearby Weather Stations

Elev 85 ft 57.80 °N, 152.38 °W | Updated 4 minutes ago

Light Rain
Light Rain Mist
54.1 °F
Feels Like 54.1 °F
N
0.0
Wind Variable Wind from SSE

Today
High -- | Low -- °F
--% Chance of Precip.
Yesterday
High -- | Low -- °F
Precip. -- in
5:17 AM 11:10 PM
Waning Gibbous, 80% visible
Pressure 30.08 in
Visibility 0.5 miles
Clouds Scattered Clouds 200 ft
Mostly Cloudy 400 ft
Overcast 800 ft
Dew Point 51 °F
Humidity 90%
Rainfall 0.51 in
Snow Depth Not available.
UV 1 out of 12
Pollen Not available.
Air Quality Not available.
Flu Activity Not available.
METAR PADQ 060153Z 07013KT 1/2SM -RA BR SCT002 BKN004 OVC008 13/12 A3008 RMK AO2 SFC VIS 1 SLP186 P0000 T01280122 $

More Conditions Fewer Conditions

Pressure 30.08 in
Visibility 0.5 miles
Clouds Scattered Clouds 200 ft
Mostly Cloudy 400 ft
Overcast 800 ft
Dew Point 51 °F
Humidity 90%
Rainfall 0.51 in
Snow Depth Not available.
UV 1 out of 12
Pollen Not available.
Air Quality Not available.
Flu Activity Not available.
METAR PADQ 060153Z 07013KT 1/2SM -RA BR SCT002 BKN004 OVC008 13/12 A3008 RMK AO2 SFC VIS 1 SLP186 P0000 T01280122 $

More Conditions Fewer Conditions

10-Day Weather Forecast

×

Almanac

Astronomy

Jul. 05, 2015 Rise Set
Actual Time
Civil Twilight
Nautical Twilight
Astronomical Twilight
Moon
Length of Visible Light
Length of Day
Tomorrow will be .
, % of the Moon is Illuminated

Today's Extremes

State Highs State Lows

Community

WunderPhotos

Upload Photos

1,835,454 photos uploaded!

WunderBlogs® & News

Nearby

Air Quality

  Air Quality AQ Index Pollutant
Not available.

Snow Depth

Station Depth Elevation

Earthquake Activity

City Distance Mag. Time & Date
Minimum magnitude displayed is 2.5.

Coastal Water Temperatures

Place Temperature

Stations

Nearby Weather Stations

Station Location Temp. Windchill Dew Point Humidity Wind Precip. Elev Updated Type